首页
METAR-TAF:

METAR-TAF

机场 :

桑坦德, 西班牙

纬度: 43-26N, 经度: 003-49W, 海拔: 6米

当前天气观测

该预报发布于39分钟前的06:00 UTC
风速4节,风向西,在西南西转西北之间变化
温度 18°C
湿度 94%
气压 1017 hPa
能見度: 9000
散云层高于500英尺
多云层高于800英尺

METAR: LEXJ 250600Z 26004KT 230V290 9000 SCT005 BKN008 18/17 Q1017

时间: 08:39 (06:39 UTC)

预报

该预报发布于4小时和39分钟前的02:00 UTC
预报有效从25日的 03点(UTC)到 26日的 03点(UTC)
风速5节,风向多变
能见度10公里或以上
散云层高于2500英尺
几率 30% :
短暂存在
从 25日的 03点(UTC)到 25日的 08点(UTC)
能見度: 3000
多云层高于500英尺
多云层高于1000英尺
轻雾
短暂存在
从 25日的 09点(UTC)到 25日的 19点(UTC)
风速10节,风向东北
几率 40% :
短暂存在
从 26日的 00点(UTC)到 26日的 03点(UTC)
能見度: 3000
多云层高于1000英尺
轻雾

TAF: LEXJ 250200Z 2503/2603 VRB05KT 9999 SCT025 TX21/2514Z TN16/2506Z PROB30 TEMPO 2503/2508 3000 BR BKN005 BKN010 TEMPO 2509/2519 05010KT PROB40 TEMPO 2600/2603 3000 BR BKN010

超过4000个机场的气象观测和天气预报(METAR&TAF报告)。

可查询的气象台以黄色和红色小点在地图上表示。

将鼠标移到小点上方,可查看气象台名称。

然后点击查看天气观测和预报。

如需切换地图:点击带黑十字的绿色按钮放大地图;点击带横线的绿色按钮缩小地图;或者点击绿色箭头查看邻近地区的地图。


METAR-TAF: